Time;durP1;ratioP1;P1;durP2;ratioP2;P2;SDS_P1;SDS_P2;PMS_P1;PMS_P2;Temp;Humidity;BMP_temperature;BMP_pressure;BME280_temperature;BME280_humidity;BME280_pressure;Samples;Min_cycle;Max_cycle;Signal;HPM_P1;HPM_P2
2023/06/04 00:01:44;;;;;;;;;;;;;;;;;;5060488;28;19925;-62
2023/06/04 00:04:11;;;;;;;;;;;;;;;;;;5069021;28;19948;-62
2023/06/04 00:06:38;;;;;;;;;;;;;;;;;;5066329;28;20027;-62
2023/06/04 00:09:05;;;;;;;;;;;;;;;;;;5069939;28;20393;-62
2023/06/04 00:11:33;;;;;;;;;;;;;;;;;;5072268;28;19935;-62
2023/06/04 00:14:00;;;;;;;;;;;;;;;;;;5072154;28;19984;-62
2023/06/04 00:16:27;;;;;;;;;;;;;;;;;;5069235;28;19928;-61
2023/06/04 00:18:54;;;;;;;;;;;;;;;;;;5065908;28;20374;-62
2023/06/04 00:21:21;;;;;;;;;;;;;;;;;;5071514;28;19986;-62
2023/06/04 00:23:47;;;;;;;;;;;;;;;;;;5066955;28;20335;-62
2023/06/04 00:26:14;;;;;;;;;;;;;;;;;;5066440;28;20372;-62
2023/06/04 00:28:41;;;;;;;;;;;;;;;;;;5065830;28;20338;-62
2023/06/04 00:31:08;;;;;;;;;;;;;;;;;;5063863;28;20393;-62
2023/06/04 00:33:35;;;;;;;;;;;;;;;;;;5073025;28;19979;-62
2023/06/04 00:36:02;;;;;;;;;;;;;;;;;;5067367;28;20023;-62
2023/06/04 00:38:29;;;;;;;;;;;;;;;;;;5070512;28;19978;-62
2023/06/04 00:40:56;;;;;;;;;;;;;;;;;;5066848;28;19970;-62
2023/06/04 00:43:25;;;;;;;;;;;;;;;;;;5070458;28;19982;-62
2023/06/04 00:45:52;;;;;;;;;;;;;;;;;;5073805;28;20392;-62
2023/06/04 00:48:18;;;;;;;;;;;;;;;;;;5067284;28;20439;-61
2023/06/04 00:50:46;;;;;;;;;;;;;;;;;;5065503;28;19978;-61
2023/06/04 00:53:13;;;;;;;;;;;;;;;;;;5071562;28;19924;-61
2023/06/04 00:55:41;;;;;;;;;;;;;;;;;;5068609;28;20359;-61
2023/06/04 00:58:09;;;;;;;;;;;;;;;;;;5074597;28;20262;-62
2023/06/04 01:00:36;;;;;;;;;;;;;;;;;;5073522;28;19952;-61
2023/06/04 01:03:05;;;;;;;;;;;;;;;;;;5072584;28;20336;-62
2023/06/04 01:05:32;;;;;;;;;;;;;;;;;;5066286;28;19925;-62
2023/06/04 01:08:00;;;;;;;;;;;;;;;;;;5066673;28;19974;-62
2023/06/04 01:10:26;;;;;;;;;;;;;;;;;;5071522;28;20403;-61
2023/06/04 01:12:53;;;;;;;;;;;;;;;;;;5070941;28;19924;-60
2023/06/04 01:15:20;;;;;;;;;;;;;;;;;;5073884;28;19924;-62
2023/06/04 01:17:51;;;;;;;;;;;;;;;;;;5073031;28;19924;-62
2023/06/04 01:20:17;;;;;;;;;;;;;;;;;;5069456;28;20010;-62
2023/06/04 01:22:44;;;;;;;;;;;;;;;;;;5071005;28;19937;-62
2023/06/04 01:25:11;;;;;;;;;;;;;;;;;;5072755;28;20393;-62
2023/06/04 01:27:40;;;;;;;;;;;;;;;;;;5071874;28;19925;-62
2023/06/04 01:30:06;;;;;;;;;;;;;;;;;;5071311;28;19948;-62
2023/06/04 01:32:33;;;;;;;;;;;;;;;;;;5070416;28;19928;-62
2023/06/04 01:35:00;;;;;;;;;;;;;;;;;;5069221;28;19925;-62
2023/06/04 01:37:27;;;;;;;;;;;;;;;;;;5077402;28;19946;-62
2023/06/04 01:39:54;;;;;;;;;;;;;;;;;;5068437;28;19932;-62
2023/06/04 01:42:21;;;;;;;;;;;;;;;;;;5079764;28;19974;-62
2023/06/04 01:44:48;;;;;;;;;;;;;;;;;;5070661;28;19928;-62
2023/06/04 01:47:14;;;;;;;;;;;;;;;;;;5073423;28;19932;-62
2023/06/04 01:49:41;;;;;;;;;;;;;;;;;;5067451;28;19929;-62
2023/06/04 01:52:08;;;;;;;;;;;;;;;;;;5067974;28;19925;-62
2023/06/04 01:54:35;;;;;;;;;;;;;;;;;;5071940;28;19924;-62
2023/06/04 01:57:03;;;;;;;;;;;;;;;;;;5068813;28;20355;-62
2023/06/04 01:59:31;;;;;;;;;;;;;;;;;;5071615;28;20327;-61
2023/06/04 02:01:58;;;;;;;;;;;;;;;;;;5074149;28;19973;-60
2023/06/04 02:04:25;;;;;;;;;;;;;;;;;;5064537;28;19978;-62
2023/06/04 02:06:52;;;;;;;;;;;;;;;;;;5067998;28;19925;-62
2023/06/04 02:09:19;;;;;;;;;;;;;;;;;;5070739;28;19924;-62
2023/06/04 02:11:46;;;;;;;;;;;;;;;;;;5071704;28;19974;-62
2023/06/04 02:14:13;;;;;;;;;;;;;;;;;;5074033;28;19932;-62
2023/06/04 02:16:40;;;;;;;;;;;;;;;;;;5071097;28;19928;-62
2023/06/04 02:19:07;;;;;;;;;;;;;;;;;;5067034;28;19925;-62
2023/06/04 02:21:35;;;;;;;;;;;;;;;;;;5067442;28;19924;-62
2023/06/04 02:24:02;;;;;;;;;;;;;;;;;;5070555;28;19933;-62
2023/06/04 02:26:29;;;;;;;;;;;;;;;;;;5069110;28;19924;-61
2023/06/04 02:28:56;;;;;;;;;;;;;;;;;;5067366;28;19970;-61
2023/06/04 02:31:23;;;;;;;;;;;;;;;;;;5063770;28;19930;-61
2023/06/04 02:33:49;;;;;;;;;;;;;;;;;;5066229;28;19947;-62
2023/06/04 02:36:17;;;;;;;;;;;;;;;;;;5065844;28;19928;-62
2023/06/04 02:38:44;;;;;;;;;;;;;;;;;;5062118;28;19928;-62
2023/06/04 02:41:11;;;;;;;;;;;;;;;;;;5068441;28;20440;-61
2023/06/04 02:43:37;;;;;;;;;;;;;;;;;;5070970;28;20373;-62
2023/06/04 02:46:06;;;;;;;;;;;;;;;;;;5069484;28;19925;-62
2023/06/04 02:48:32;;;;;;;;;;;;;;;;;;5066037;28;20271;-62
2023/06/04 02:50:59;;;;;;;;;;;;;;;;;;5057783;28;20381;-62
2023/06/04 02:53:26;;;;;;;;;;;;;;;;;;5059860;28;20387;-62
2023/06/04 02:55:53;;;;;;;;;;;;;;;;;;5065770;28;19925;-61
2023/06/04 02:58:21;;;;;;;;;;;;;;;;;;5065764;28;19951;-61
2023/06/04 03:00:48;;;;;;;;;;;;;;;;;;5063190;28;19925;-62
2023/06/04 03:03:15;;;;;;;;;;;;;;;;;;5069657;28;19947;-62
2023/06/04 03:05:42;;;;;;;;;;;;;;;;;;5065730;28;19990;-62
2023/06/04 03:08:09;;;;;;;;;;;;;;;;;;5064259;28;19925;-62
2023/06/04 03:10:36;;;;;;;;;;;;;;;;;;5071657;28;20308;-62
2023/06/04 03:13:03;;;;;;;;;;;;;;;;;;5074050;28;20332;-62
2023/06/04 03:15:30;;;;;;;;;;;;;;;;;;5066088;28;19932;-61
2023/06/04 03:17:57;;;;;;;;;;;;;;;;;;5060515;28;19978;-61
2023/06/04 03:20:24;;;;;;;;;;;;;;;;;;5061492;28;20046;-61
2023/06/04 03:22:51;;;;;;;;;;;;;;;;;;5067604;28;19947;-62
2023/06/04 03:25:18;;;;;;;;;;;;;;;;;;5067207;28;19925;-62
2023/06/04 03:27:45;;;;;;;;;;;;;;;;;;5069607;28;19928;-62
2023/06/04 03:30:12;;;;;;;;;;;;;;;;;;5071932;28;19990;-62
2023/06/04 03:32:39;;;;;;;;;;;;;;;;;;5069194;28;20000;-62
2023/06/04 03:35:06;;;;;;;;;;;;;;;;;;5066653;28;19970;-61
2023/06/04 03:37:33;;;;;;;;;;;;;;;;;;5067754;28;19928;-61
2023/06/04 03:40:00;;;;;;;;;;;;;;;;;;5067879;28;19967;-61
2023/06/04 03:42:27;;;;;;;;;;;;;;;;;;5069158;28;19924;-62
2023/06/04 03:44:54;;;;;;;;;;;;;;;;;;5073794;28;19964;-62
2023/06/04 03:47:21;;;;;;;;;;;;;;;;;;5075920;28;19924;-61
2023/06/04 03:49:48;;;;;;;;;;;;;;;;;;5076590;28;20537;-61
2023/06/04 03:52:14;;;;;;;;;;;;;;;;;;5070829;28;20340;-62
2023/06/04 03:54:41;;;;;;;;;;;;;;;;;;5074673;28;19929;-62
2023/06/04 03:57:08;;;;;;;;;;;;;;;;;;5073484;28;19932;-61
2023/06/04 03:59:35;;;;;;;;;;;;;;;;;;5072375;28;19925;-61
2023/06/04 04:02:02;;;;;;;;;;;;;;;;;;5074737;28;20017;-62
2023/06/04 04:04:29;;;;;;;;;;;;;;;;;;5070083;28;19925;-62
2023/06/04 04:06:56;;;;;;;;;;;;;;;;;;5076656;28;19931;-62
2023/06/04 04:09:23;;;;;;;;;;;;;;;;;;5061556;28;19948;-62
2023/06/04 04:11:49;;;;;;;;;;;;;;;;;;5072710;28;19936;-62
2023/06/04 04:14:16;;;;;;;;;;;;;;;;;;5077128;28;20369;-62
2023/06/04 04:16:43;;;;;;;;;;;;;;;;;;5069037;28;20346;-62
2023/06/04 04:19:11;;;;;;;;;;;;;;;;;;5071123;28;20430;-62
2023/06/04 04:21:38;;;;;;;;;;;;;;;;;;5071172;28;19925;-62
2023/06/04 04:24:05;;;;;;;;;;;;;;;;;;5072369;28;19928;-62
2023/06/04 04:26:32;;;;;;;;;;;;;;;;;;5068909;28;19928;-62
2023/06/04 04:28:59;;;;;;;;;;;;;;;;;;5068543;28;19966;-62
2023/06/04 04:31:26;;;;;;;;;;;;;;;;;;5069235;28;19925;-62
2023/06/04 04:33:53;;;;;;;;;;;;;;;;;;5073324;28;19958;-62
2023/06/04 04:36:20;;;;;;;;;;;;;;;;;;5071253;28;19925;-62
2023/06/04 04:38:53;;;;;;;;;;;;;;;;;;5070042;28;19925;-62
2023/06/04 04:41:20;;;;;;;;;;;;;;;;;;5072757;28;19925;-61
2023/06/04 04:43:47;;;;;;;;;;;;;;;;;;5076010;28;19931;-61
2023/06/04 04:46:14;;;;;;;;;;;;;;;;;;5065992;28;19928;-62
2023/06/04 04:48:42;;;;;;;;;;;;;;;;;;5074356;28;19960;-62
2023/06/04 04:51:09;;;;;;;;;;;;;;;;;;5070526;28;20019;-62
2023/06/04 04:53:36;;;;;;;;;;;;;;;;;;5077209;28;20312;-62
2023/06/04 04:56:02;;;;;;;;;;;;;;;;;;5064960;28;20526;-62
2023/06/04 04:58:29;;;;;;;;;;;;;;;;;;5068633;28;19973;-62
2023/06/04 05:00:56;;;;;;;;;;;;;;;;;;5067955;28;19955;-62
2023/06/04 05:03:23;;;;;;;;;;;;;;;;;;5065938;28;19928;-62
2023/06/04 05:05:50;;;;;;;;;;;;;;;;;;5068079;28;19925;-62
2023/06/04 05:08:17;;;;;;;;;;;;;;;;;;5068923;28;19924;-62
2023/06/04 05:10:44;;;;;;;;;;;;;;;;;;5070047;28;20488;-61
2023/06/04 05:13:11;;;;;;;;;;;;;;;;;;5071117;28;20340;-61
2023/06/04 05:15:39;;;;;;;;;;;;;;;;;;5069237;28;20385;-62
2023/06/04 05:18:07;;;;;;;;;;;;;;;;;;5066377;28;20291;-61
2023/06/04 05:20:37;;;;;;;;;;;;;;;;;;5064050;28;19972;-62
2023/06/04 05:23:04;;;;;;;;;;;;;;;;;;5068051;28;19931;-62
2023/06/04 05:25:31;;;;;;;;;;;;;;;;;;5069205;28;19985;-60
2023/06/04 05:27:58;;;;;;;;;;;;;;;;;;5062956;28;19929;-62
2023/06/04 05:30:25;;;;;;;;;;;;;;;;;;5066993;28;19924;-62
2023/06/04 05:32:53;;;;;;;;;;;;;;;;;;5066208;28;20300;-62
2023/06/04 05:35:20;;;;;;;;;;;;;;;;;;5067282;28;19925;-63
2023/06/04 05:37:53;;;;;;;;;;;;;;;;;;5069584;28;19925;-63
2023/06/04 05:40:20;;;;;;;;;;;;;;;;;;5073173;28;19924;-62
2023/06/04 05:42:48;;;;;;;;;;;;;;;;;;5075804;28;19931;-62
2023/06/04 05:45:14;;;;;;;;;;;;;;;;;;5064400;28;19924;-62
2023/06/04 05:47:41;;;;;;;;;;;;;;;;;;5066358;28;19987;-62
2023/06/04 05:50:09;;;;;;;;;;;;;;;;;;5064910;28;19928;-62
2023/06/04 05:52:36;;;;;;;;;;;;;;;;;;5063821;28;19971;-62
2023/06/04 05:55:03;;;;;;;;;;;;;;;;;;5067265;28;19928;-62
2023/06/04 05:57:30;;;;;;;;;;;;;;;;;;5066608;28;19928;-62
2023/06/04 05:59:57;;;;;;;;;;;;;;;;;;5072431;28;19924;-63
2023/06/04 06:02:24;;;;;;;;;;;;;;;;;;5068865;28;19936;-61
2023/06/04 06:04:51;;;;;;;;;;;;;;;;;;5067989;28;20332;-63
2023/06/04 06:07:19;;;;;;;;;;;;;;;;;;5065046;28;20335;-63
2023/06/04 06:09:46;;;;;;;;;;;;;;;;;;5066282;28;19976;-63
2023/06/04 06:12:13;;;;;;;;;;;;;;;;;;5069302;28;20007;-63
2023/06/04 06:14:39;;;;;;;;;;;;;;;;;;5070509;28;19924;-64
2023/06/04 06:17:06;;;;;;;;;;;;;;;;;;5063434;28;19928;-61
2023/06/04 06:19:33;;;;;;;;;;;;;;;;;;5066312;28;19961;-61
2023/06/04 06:22:00;;;;;;;;;;;;;;;;;;5069375;28;19977;-61
2023/06/04 06:24:27;;;;;;;;;;;;;;;;;;5066829;28;19931;-61
2023/06/04 06:26:54;;;;;;;;;;;;;;;;;;5065620;28;19928;-61
2023/06/04 06:29:21;;;;;;;;;;;;;;;;;;5062743;28;19982;-64
2023/06/04 06:31:48;;;;;;;;;;;;;;;;;;5063456;28;20401;-61
2023/06/04 06:34:14;;;;;;;;;;;;;;;;;;5064154;28;19947;-61
2023/06/04 06:36:41;;;;;;;;;;;;;;;;;;5070222;28;19930;-61
2023/06/04 06:39:09;;;;;;;;;;;;;;;;;;5066743;28;19979;-61
2023/06/04 06:41:35;;;;;;;;;;;;;;;;;;5066630;28;19924;-61
2023/06/04 06:44:02;;;;;;;;;;;;;;;;;;5068354;28;19931;-63
2023/06/04 06:46:29;;;;;;;;;;;;;;;;;;5067388;28;19971;-61
2023/06/04 06:48:56;;;;;;;;;;;;;;;;;;5068169;28;19970;-62
2023/06/04 06:51:23;;;;;;;;;;;;;;;;;;5070313;28;19929;-62
2023/06/04 06:53:50;;;;;;;;;;;;;;;;;;5070604;28;19986;-63
2023/06/04 06:56:17;;;;;;;;;;;;;;;;;;5065368;28;19928;-62
2023/06/04 06:58:45;;;;;;;;;;;;;;;;;;5063922;28;20479;-62
2023/06/04 07:01:11;;;;;;;;;;;;;;;;;;5064125;28;19925;-62
2023/06/04 07:03:39;;;;;;;;;;;;;;;;;;5068330;28;19924;-63
2023/06/04 07:06:06;;;;;;;;;;;;;;;;;;5062903;28;20016;-63
2023/06/04 07:08:33;;;;;;;;;;;;;;;;;;5065823;28;19974;-63
2023/06/04 07:11:00;;;;;;;;;;;;;;;;;;5060032;28;19925;-62
2023/06/04 07:13:27;;;;;;;;;;;;;;;;;;5070604;28;19985;-62
2023/06/04 07:15:53;;;;;;;;;;;;;;;;;;5062987;28;19975;-62
2023/06/04 07:18:20;;;;;;;;;;;;;;;;;;5065099;28;19955;-64
2023/06/04 07:20:47;;;;;;;;;;;;;;;;;;5064610;28;19928;-64
2023/06/04 07:23:14;;;;;;;;;;;;;;;;;;5062995;28;20373;-62
2023/06/04 07:25:41;;;;;;;;;;;;;;;;;;5063881;28;19925;-62
2023/06/04 07:28:08;;;;;;;;;;;;;;;;;;5067892;28;19939;-62
2023/06/04 07:30:35;;;;;;;;;;;;;;;;;;5062883;28;19924;-61
2023/06/04 07:33:02;;;;;;;;;;;;;;;;;;5063450;28;19990;-62
2023/06/04 07:35:29;;;;;;;;;;;;;;;;;;5061348;28;19991;-62
2023/06/04 07:37:56;;;;;;;;;;;;;;;;;;5063245;28;19925;-62
2023/06/04 07:40:23;;;;;;;;;;;;;;;;;;5065246;28;20212;-63
2023/06/04 07:42:50;;;;;;;;;;;;;;;;;;5066466;28;19929;-62
2023/06/04 07:45:17;;;;;;;;;;;;;;;;;;5060975;28;19928;-62
2023/06/04 07:47:44;;;;;;;;;;;;;;;;;;5059972;28;19928;-62
2023/06/04 07:50:11;;;;;;;;;;;;;;;;;;5061916;28;19990;-62
2023/06/04 07:52:37;;;;;;;;;;;;;;;;;;5067966;28;20041;-62
2023/06/04 07:55:04;;;;;;;;;;;;;;;;;;5057838;28;19925;-62
2023/06/04 07:57:32;;;;;;;;;;;;;;;;;;5061611;28;19924;-62
2023/06/04 07:59:59;;;;;;;;;;;;;;;;;;5063503;28;20380;-62
2023/06/04 08:02:26;;;;;;;;;;;;;;;;;;5064082;28;20265;-62
2023/06/04 08:04:53;;;;;;;;;;;;;;;;;;5064143;28;19924;-62
2023/06/04 08:07:20;;;;;;;;;;;;;;;;;;5061930;28;19929;-63
2023/06/04 08:09:46;;;;;;;;;;;;;;;;;;5059323;28;20340;-65
2023/06/04 08:12:13;;;;;;;;;;;;;;;;;;5062828;28;19928;-65
2023/06/04 08:14:40;;;;;;;;;;;;;;;;;;5065474;28;19924;-65
2023/06/04 08:17:07;;;;;;;;;;;;;;;;;;5065534;28;19929;-65
2023/06/04 08:19:34;;;;;;;;;;;;;;;;;;5062668;28;19928;-65
2023/06/04 08:22:01;;;;;;;;;;;;;;;;;;5062900;28;19982;-65
2023/06/04 08:24:28;;;;;;;;;;;;;;;;;;5059371;28;19924;-65
2023/06/04 08:26:55;;;;;;;;;;;;;;;;;;5064051;28;19929;-66
2023/06/04 08:29:21;;;;;;;;;;;;;;;;;;5061593;28;19979;-66
2023/06/04 08:31:48;;;;;;;;;;;;;;;;;;5065607;28;19955;-65
2023/06/04 08:34:15;;;;;;;;;;;;;;;;;;5066372;28;19932;-67
2023/06/04 08:36:42;;;;;;;;;;;;;;;;;;5063943;28;20630;-66
2023/06/04 08:39:09;;;;;;;;;;;;;;;;;;5066886;28;19924;-66
2023/06/04 08:41:36;;;;;;;;;;;;;;;;;;5068854;28;20322;-66
2023/06/04 08:44:03;;;;;;;;;;;;;;;;;;5066601;28;20488;-66
2023/06/04 08:46:30;;;;;;;;;;;;;;;;;;5065529;28;20339;-67
2023/06/04 08:48:57;;;;;;;;;;;;;;;;;;5065887;28;19924;-65
2023/06/04 08:51:24;;;;;;;;;;;;;;;;;;5064209;28;19977;-65
2023/06/04 08:53:53;;;;;;;;;;;;;;;;;;5067297;28;19932;-65
2023/06/04 08:56:20;;;;;;;;;;;;;;;;;;5069640;28;19931;-66
2023/06/04 08:58:47;;;;;;;;;;;;;;;;;;5066092;28;19929;-63
2023/06/04 09:01:14;;;;;;;;;;;;;;;;;;5055963;28;19955;-64
2023/06/04 09:03:41;;;;;;;;;;;;;;;;;;5063386;28;19928;-64
2023/06/04 09:06:08;;;;;;;;;;;;;;;;;;5063138;28;19996;-65
2023/06/04 09:08:35;;;;;;;;;;;;;;;;;;5067812;28;19924;-63
2023/06/04 09:11:02;;;;;;;;;;;;;;;;;;5068202;28;19924;-64
2023/06/04 09:13:29;;;;;;;;;;;;;;;;;;5067006;28;19924;-65
2023/06/04 09:15:56;;;;;;;;;;;;;;;;;;5069128;28;19995;-65
2023/06/04 09:18:23;;;;;;;;;;;;;;;;;;5066740;28;19975;-61
2023/06/04 09:20:50;;;;;;;;;;;;;;;;;;5063878;28;19924;-62
2023/06/04 09:23:17;;;;;;;;;;;;;;;;;;5062918;28;19925;-62
2023/06/04 09:25:44;;;;;;;;;;;;;;;;;;5064902;28;19928;-62
2023/06/04 09:28:11;;;;;;;;;;;;;;;;;;5062984;28;19935;-62
2023/06/04 09:30:38;;;;;;;;;;;;;;;;;;5065234;28;19951;-62
2023/06/04 09:33:05;;;;;;;;;;;;;;;;;;5063856;28;20420;-63
2023/06/04 09:35:32;;;;;;;;;;;;;;;;;;5062945;28;19975;-61
2023/06/04 09:37:59;;;;;;;;;;;;;;;;;;5064179;28;19932;-64
2023/06/04 09:40:25;;;;;;;;;;;;;;;;;;5064615;28;19928;-63
2023/06/04 09:42:55;;;;;;;;;;;;;;;;;;5070060;28;19924;-66
2023/06/04 09:45:21;;;;;;;;;;;;;;;;;;5064989;28;19924;-63
2023/06/04 09:47:48;;;;;;;;;;;;;;;;;;5064914;28;19929;-64
2023/06/04 09:50:16;;;;;;;;;;;;;;;;;;5065023;28;19925;-63
2023/06/04 09:52:44;;;;;;;;;;;;;;;;;;5062484;28;19928;-63
2023/06/04 09:55:11;;;;;;;;;;;;;;;;;;5061372;28;20019;-63
2023/06/04 09:57:39;;;;;;;;;;;;;;;;;;5061776;28;20331;-64
2023/06/04 10:00:11;;;;;;;;;;;;;;;;;;5064516;28;20300;-64
2023/06/04 10:02:38;;;;;;;;;;;;;;;;;;5064379;28;20355;-63
2023/06/04 10:05:08;;;;;;;;;;;;;;;;;;5064276;28;19929;-63
2023/06/04 10:07:35;;;;;;;;;;;;;;;;;;5064312;28;19982;-63
2023/06/04 10:10:02;;;;;;;;;;;;;;;;;;5061777;28;19924;-62
2023/06/04 10:12:29;;;;;;;;;;;;;;;;;;5070477;28;19925;-63
2023/06/04 10:14:56;;;;;;;;;;;;;;;;;;5063458;28;19925;-63
2023/06/04 10:17:24;;;;;;;;;;;;;;;;;;5067099;28;19932;-63
2023/06/04 10:19:51;;;;;;;;;;;;;;;;;;5064268;28;19931;-63
2023/06/04 10:22:18;;;;;;;;;;;;;;;;;;5064966;28;19925;-63
2023/06/04 10:24:46;;;;;;;;;;;;;;;;;;5064194;28;19936;-64
2023/06/04 10:27:13;;;;;;;;;;;;;;;;;;5065667;28;19966;-63
2023/06/04 10:29:40;;;;;;;;;;;;;;;;;;5065700;28;20397;-64
2023/06/04 10:32:07;;;;;;;;;;;;;;;;;;5061479;28;19932;-65
2023/06/04 10:34:34;;;;;;;;;;;;;;;;;;5061821;28;19979;-65
2023/06/04 10:37:02;;;;;;;;;;;;;;;;;;5065124;28;19982;-64
2023/06/04 10:39:29;;;;;;;;;;;;;;;;;;5064500;28;19943;-62
2023/06/04 10:41:56;;;;;;;;;;;;;;;;;;5064197;28;19954;-64
2023/06/04 10:44:22;;;;;;;;;;;;;;;;;;5065408;28;19924;-65
2023/06/04 10:46:49;;;;;;;;;;;;;;;;;;5062148;28;19928;-64
2023/06/04 10:49:16;;;;;;;;;;;;;;;;;;5062410;28;19925;-65
2023/06/04 10:51:43;;;;;;;;;;;;;;;;;;5063777;28;19929;-63
2023/06/04 10:54:10;;;;;;;;;;;;;;;;;;5059654;28;19924;-63
2023/06/04 10:56:37;;;;;;;;;;;;;;;;;;5064010;28;19924;-65
2023/06/04 10:59:04;;;;;;;;;;;;;;;;;;5061727;28;19987;-62
2023/06/04 11:01:31;;;;;;;;;;;;;;;;;;5062029;28;19928;-63
2023/06/04 11:03:58;;;;;;;;;;;;;;;;;;5063925;28;19925;-63
2023/06/04 11:06:27;;;;;;;;;;;;;;;;;;5060282;28;19959;-62
2023/06/04 11:08:54;;;;;;;;;;;;;;;;;;5063540;28;19972;-63
2023/06/04 11:11:21;;;;;;;;;;;;;;;;;;5065586;28;19924;-63
2023/06/04 11:13:48;;;;;;;;;;;;;;;;;;5065251;28;19925;-63
2023/06/04 11:16:15;;;;;;;;;;;;;;;;;;5052436;28;19925;-63
2023/06/04 11:18:42;;;;;;;;;;;;;;;;;;5052220;28;19933;-63
2023/06/04 11:21:11;;;;;;;;;;;;;;;;;;5052203;28;19925;-64
2023/06/04 11:23:38;;;;;;;;;;;;;;;;;;5061684;28;20019;-64
2023/06/04 11:26:05;;;;;;;;;;;;;;;;;;5063192;28;19970;-65
2023/06/04 11:28:31;;;;;;;;;;;;;;;;;;5061674;28;19933;-63
2023/06/04 11:30:58;;;;;;;;;;;;;;;;;;5061331;28;19925;-64
2023/06/04 11:33:25;;;;;;;;;;;;;;;;;;5063613;28;20293;-64
2023/06/04 11:35:52;;;;;;;;;;;;;;;;;;5065178;28;20270;-65
2023/06/04 11:38:19;;;;;;;;;;;;;;;;;;5065017;28;20357;-63
2023/06/04 11:40:46;;;;;;;;;;;;;;;;;;5064084;28;19972;-62
2023/06/04 11:43:13;;;;;;;;;;;;;;;;;;5067313;28;19928;-63
2023/06/04 11:45:40;;;;;;;;;;;;;;;;;;5063889;28;19924;-63
2023/06/04 11:48:07;;;;;;;;;;;;;;;;;;5062626;28;19929;-63
2023/06/04 11:50:33;;;;;;;;;;;;;;;;;;5063047;28;20384;-64
2023/06/04 11:53:00;;;;;;;;;;;;;;;;;;5060996;28;20385;-64
2023/06/04 11:55:27;;;;;;;;;;;;;;;;;;5061530;28;19935;-63
2023/06/04 11:57:54;;;;;;;;;;;;;;;;;;5064142;28;19971;-63
2023/06/04 12:00:21;;;;;;;;;;;;;;;;;;5063421;28;19925;-63
2023/06/04 12:02:48;;;;;;;;;;;;;;;;;;5060611;28;19924;-63
2023/06/04 12:05:15;;;;;;;;;;;;;;;;;;5065898;28;19924;-64
2023/06/04 12:07:42;;;;;;;;;;;;;;;;;;5066675;28;19931;-64
2023/06/04 12:10:09;;;;;;;;;;;;;;;;;;5063766;28;19982;-64
2023/06/04 12:12:36;;;;;;;;;;;;;;;;;;5074516;28;20327;-63
2023/06/04 12:15:05;;;;;;;;;;;;;;;;;;5065950;28;20343;-63
2023/06/04 12:17:32;;;;;;;;;;;;;;;;;;5065003;28;19982;-66
2023/06/04 12:19:59;;;;;;;;;;;;;;;;;;5065166;28;19979;-66
2023/06/04 12:22:26;;;;;;;;;;;;;;;;;;5065067;28;19924;-65
2023/06/04 12:24:54;;;;;;;;;;;;;;;;;;5069471;28;20439;-66
2023/06/04 12:27:21;;;;;;;;;;;;;;;;;;5071003;28;19925;-66
2023/06/04 12:29:48;;;;;;;;;;;;;;;;;;5065722;28;19925;-67
2023/06/04 12:32:15;;;;;;;;;;;;;;;;;;5069132;28;19925;-65
2023/06/04 12:34:42;;;;;;;;;;;;;;;;;;5068539;28;19924;-66
2023/06/04 12:37:09;;;;;;;;;;;;;;;;;;5068154;28;19959;-66
2023/06/04 12:39:36;;;;;;;;;;;;;;;;;;5063494;28;19928;-66
2023/06/04 12:42:04;;;;;;;;;;;;;;;;;;5068880;28;19978;-66
2023/06/04 12:44:31;;;;;;;;;;;;;;;;;;5070169;28;20437;-66
2023/06/04 12:46:58;;;;;;;;;;;;;;;;;;5065486;28;19925;-66
2023/06/04 12:49:25;;;;;;;;;;;;;;;;;;5064947;28;19928;-66
2023/06/04 12:51:52;;;;;;;;;;;;;;;;;;5067394;28;19925;-65
2023/06/04 12:54:19;;;;;;;;;;;;;;;;;;5063619;28;19932;-66
2023/06/04 12:56:46;;;;;;;;;;;;;;;;;;5063699;28;19975;-66
2023/06/04 12:59:13;;;;;;;;;;;;;;;;;;5067079;28;19924;-65
2023/06/04 13:01:40;;;;;;;;;;;;;;;;;;5065796;28;19925;-66
2023/06/04 13:04:07;;;;;;;;;;;;;;;;;;5054228;28;20374;-68
2023/06/04 13:06:34;;;;;;;;;;;;;;;;;;5054712;28;20363;-66
2023/06/04 13:09:01;;;;;;;;;;;;;;;;;;5054335;28;19970;-66
2023/06/04 13:11:27;;;;;;;;;;;;;;;;;;5061965;28;19998;-66
2023/06/04 13:13:56;;;;;;;;;;;;;;;;;;5069670;28;21647;-64
2023/06/04 13:16:23;;;;;;;;;;;;;;;;;;5057359;28;19979;-64
2023/06/04 13:18:50;;;;;;;;;;;;;;;;;;5065128;28;19950;-64
2023/06/04 13:21:17;;;;;;;;;;;;;;;;;;5063176;28;19968;-67
2023/06/04 13:23:44;;;;;;;;;;;;;;;;;;5066932;28;19925;-64
2023/06/04 13:26:11;;;;;;;;;;;;;;;;;;5065277;28;19924;-64
2023/06/04 13:28:38;;;;;;;;;;;;;;;;;;5063827;28;19928;-65
2023/06/04 13:31:05;;;;;;;;;;;;;;;;;;5063296;28;20266;-65
2023/06/04 13:33:34;;;;;;;;;;;;;;;;;;5071544;28;20080;-65
2023/06/04 13:36:00;;;;;;;;;;;;;;;;;;5068078;28;19971;-66
2023/06/04 13:38:27;;;;;;;;;;;;;;;;;;5063080;28;19925;-65
2023/06/04 13:40:54;;;;;;;;;;;;;;;;;;5070372;28;19978;-67
2023/06/04 13:43:21;;;;;;;;;;;;;;;;;;5066432;28;19956;-65
2023/06/04 13:45:48;;;;;;;;;;;;;;;;;;5062567;28;19929;-64
2023/06/04 13:48:15;;;;;;;;;;;;;;;;;;5064145;28;19970;-67
2023/06/04 13:50:42;;;;;;;;;;;;;;;;;;5062139;28;20003;-65
2023/06/04 13:53:08;;;;;;;;;;;;;;;;;;5064024;28;19928;-65
2023/06/04 13:55:35;;;;;;;;;;;;;;;;;;5064585;28;19928;-67
2023/06/04 13:58:02;;;;;;;;;;;;;;;;;;5062110;28;19932;-66
2023/06/04 14:00:30;;;;;;;;;;;;;;;;;;5065786;28;19929;-65
2023/06/04 14:02:57;;;;;;;;;;;;;;;;;;5062609;28;20020;-66
2023/06/04 14:05:24;;;;;;;;;;;;;;;;;;5063617;28;19970;-65
2023/06/04 14:07:51;;;;;;;;;;;;;;;;;;5064819;28;19983;-67
2023/06/04 14:10:18;;;;;;;;;;;;;;;;;;5063814;28;19928;-66
2023/06/04 14:12:45;;;;;;;;;;;;;;;;;;5084289;28;19928;-67
2023/06/04 14:15:12;;;;;;;;;;;;;;;;;;5072298;28;20026;-67
2023/06/04 14:17:39;;;;;;;;;;;;;;;;;;5063228;28;19994;-66
2023/06/04 14:20:07;;;;;;;;;;;;;;;;;;5064427;28;19925;-66
2023/06/04 14:22:34;;;;;;;;;;;;;;;;;;5064012;28;20401;-67
2023/06/04 14:25:01;;;;;;;;;;;;;;;;;;5061872;28;19976;-67
2023/06/04 14:27:28;;;;;;;;;;;;;;;;;;5061244;28;20404;-66
2023/06/04 14:29:55;;;;;;;;;;;;;;;;;;5065164;28;19928;-66
2023/06/04 14:32:22;;;;;;;;;;;;;;;;;;5061721;28;19924;-66
2023/06/04 14:34:48;;;;;;;;;;;;;;;;;;5063836;28;19929;-67
2023/06/04 14:37:15;;;;;;;;;;;;;;;;;;5064640;28;20376;-66
2023/06/04 14:39:42;;;;;;;;;;;;;;;;;;5061408;28;19924;-66
2023/06/04 14:42:09;;;;;;;;;;;;;;;;;;5060693;28;19925;-66
2023/06/04 14:44:36;;;;;;;;;;;;;;;;;;5073451;28;19925;-67
2023/06/04 14:47:03;;;;;;;;;;;;;;;;;;5066178;28;19978;-65
2023/06/04 14:49:29;;;;;;;;;;;;;;;;;;5066705;28;19955;-67
2023/06/04 14:51:56;;;;;;;;;;;;;;;;;;5065143;28;19924;-66
2023/06/04 14:54:23;;;;;;;;;;;;;;;;;;5061864;28;20494;-67
2023/06/04 14:56:50;;;;;;;;;;;;;;;;;;5068388;28;20019;-65
2023/06/04 14:59:17;;;;;;;;;;;;;;;;;;5064828;28;19924;-66
2023/06/04 15:01:46;;;;;;;;;;;;;;;;;;5069952;28;19925;-66
2023/06/04 15:04:12;;;;;;;;;;;;;;;;;;5070772;28;19924;-65
2023/06/04 15:06:39;;;;;;;;;;;;;;;;;;5074794;28;19971;-64
2023/06/04 15:09:06;;;;;;;;;;;;;;;;;;5063539;28;19929;-64
2023/06/04 15:11:33;;;;;;;;;;;;;;;;;;5068498;28;19929;-64
2023/06/04 15:14:00;;;;;;;;;;;;;;;;;;5065477;28;19925;-64
2023/06/04 15:16:27;;;;;;;;;;;;;;;;;;5063291;28;19973;-64
2023/06/04 15:18:54;;;;;;;;;;;;;;;;;;5060715;28;19970;-65
2023/06/04 15:21:22;;;;;;;;;;;;;;;;;;5063298;28;19998;-65
2023/06/04 15:23:49;;;;;;;;;;;;;;;;;;5063029;28;19928;-65
2023/06/04 15:26:16;;;;;;;;;;;;;;;;;;5063435;28;19924;-65
2023/06/04 15:28:43;;;;;;;;;;;;;;;;;;5060868;28;20373;-66
2023/06/04 15:31:09;;;;;;;;;;;;;;;;;;5064070;28;20354;-66
2023/06/04 15:33:36;;;;;;;;;;;;;;;;;;5062498;28;20431;-67
2023/06/04 15:36:03;;;;;;;;;;;;;;;;;;5057963;28;20427;-67
2023/06/04 15:38:30;;;;;;;;;;;;;;;;;;5059701;28;19939;-65
2023/06/04 15:40:57;;;;;;;;;;;;;;;;;;5062739;28;19925;-65
2023/06/04 15:43:24;;;;;;;;;;;;;;;;;;5065247;28;20270;-65
2023/06/04 15:45:51;;;;;;;;;;;;;;;;;;5060848;28;19978;-65
2023/06/04 15:48:18;;;;;;;;;;;;;;;;;;5063369;28;19985;-65
2023/06/04 15:50:45;;;;;;;;;;;;;;;;;;5062570;28;19928;-65
2023/06/04 15:53:11;;;;;;;;;;;;;;;;;;5061176;28;19925;-65
2023/06/04 15:55:38;;;;;;;;;;;;;;;;;;5061086;28;19951;-66
2023/06/04 15:58:05;;;;;;;;;;;;;;;;;;5066994;28;19966;-67
2023/06/04 16:00:32;;;;;;;;;;;;;;;;;;5061618;28;19924;-65
2023/06/04 16:02:59;;;;;;;;;;;;;;;;;;5063016;28;19932;-65
2023/06/04 16:05:27;;;;;;;;;;;;;;;;;;5060532;28;19924;-65
2023/06/04 16:07:54;;;;;;;;;;;;;;;;;;5061638;28;20381;-66
2023/06/04 16:10:20;;;;;;;;;;;;;;;;;;5059951;28;19925;-65
2023/06/04 16:12:48;;;;;;;;;;;;;;;;;;5064925;28;19932;-65
2023/06/04 16:15:15;;;;;;;;;;;;;;;;;;5063378;28;19925;-65
2023/06/04 16:17:46;;;;;;;;;;;;;;;;;;5061841;28;19925;-65
2023/06/04 16:20:13;;;;;;;;;;;;;;;;;;5062586;28;19924;-66
2023/06/04 16:22:40;;;;;;;;;;;;;;;;;;5062168;28;19929;-65
2023/06/04 16:25:07;;;;;;;;;;;;;;;;;;5062642;28;19925;-65
2023/06/04 16:27:35;;;;;;;;;;;;;;;;;;5062968;28;19924;-66
2023/06/04 16:30:02;;;;;;;;;;;;;;;;;;5060744;28;19924;-66
2023/06/04 16:32:29;;;;;;;;;;;;;;;;;;5065668;28;19978;-65
2023/06/04 16:34:55;;;;;;;;;;;;;;;;;;5061241;28;19929;-66
2023/06/04 16:37:22;;;;;;;;;;;;;;;;;;5059320;28;19974;-64
2023/06/04 16:39:49;;;;;;;;;;;;;;;;;;5060551;28;19929;-66
2023/06/04 16:42:16;;;;;;;;;;;;;;;;;;5057105;28;19928;-64
2023/06/04 16:44:43;;;;;;;;;;;;;;;;;;5064586;28;20459;-67